sensor_id;sensor_type;location;lat;lon;timestamp;temperature;humidity
39095;DHT22;24840;47.508;19.376;2022-07-06T00:02:10;18.00;99.90
39095;DHT22;24840;47.508;19.376;2022-07-06T00:04:36;18.00;99.90
39095;DHT22;24840;47.508;19.376;2022-07-06T00:07:03;18.00;99.90
39095;DHT22;24840;47.508;19.376;2022-07-06T00:09:29;18.00;99.90
39095;DHT22;24840;47.508;19.376;2022-07-06T00:11:55;18.00;99.90
39095;DHT22;24840;47.508;19.376;2022-07-06T00:14:21;18.10;99.90
39095;DHT22;24840;47.508;19.376;2022-07-06T00:16:47;18.20;99.90
39095;DHT22;24840;47.508;19.376;2022-07-06T00:19:18;18.00;99.90
39095;DHT22;24840;47.508;19.376;2022-07-06T00:21:44;18.00;99.90
39095;DHT22;24840;47.508;19.376;2022-07-06T00:24:10;18.20;99.90
39095;DHT22;24840;47.508;19.376;2022-07-06T00:26:37;18.10;99.90
39095;DHT22;24840;47.508;19.376;2022-07-06T00:29:03;17.90;99.90
39095;DHT22;24840;47.508;19.376;2022-07-06T00:31:36;17.80;99.90
39095;DHT22;24840;47.508;19.376;2022-07-06T00:34:02;17.60;99.90
39095;DHT22;24840;47.508;19.376;2022-07-06T00:36:29;17.60;99.90
39095;DHT22;24840;47.508;19.376;2022-07-06T00:38:55;17.50;99.90
39095;DHT22;24840;47.508;19.376;2022-07-06T00:41:21;17.50;99.90
39095;DHT22;24840;47.508;19.376;2022-07-06T00:43:56;17.60;99.90
39095;DHT22;24840;47.508;19.376;2022-07-06T00:46:30;17.50;99.90
39095;DHT22;24840;47.508;19.376;2022-07-06T00:48:57;17.50;99.90
39095;DHT22;24840;47.508;19.376;2022-07-06T00:51:30;17.50;99.90
39095;DHT22;24840;47.508;19.376;2022-07-06T00:53:59;17.30;99.90
39095;DHT22;24840;47.508;19.376;2022-07-06T00:56:29;17.40;99.90
39095;DHT22;24840;47.508;19.376;2022-07-06T00:58:57;17.40;99.90
39095;DHT22;24840;47.508;19.376;2022-07-06T01:01:23;17.50;99.90
39095;DHT22;24840;47.508;19.376;2022-07-06T01:03:51;17.40;99.90
39095;DHT22;24840;47.508;19.376;2022-07-06T01:06:17;17.40;99.90
39095;DHT22;24840;47.508;19.376;2022-07-06T01:08:45;17.50;99.90
39095;DHT22;24840;47.508;19.376;2022-07-06T01:11:20;17.60;99.90
39095;DHT22;24840;47.508;19.376;2022-07-06T01:13:47;17.40;99.90
39095;DHT22;24840;47.508;19.376;2022-07-06T01:16:13;17.30;99.90
39095;DHT22;24840;47.508;19.376;2022-07-06T01:18:40;17.10;99.90
39095;DHT22;24840;47.508;19.376;2022-07-06T01:21:12;17.20;99.90
39095;DHT22;24840;47.508;19.376;2022-07-06T01:23:41;17.20;99.90
39095;DHT22;24840;47.508;19.376;2022-07-06T01:26:10;17.30;99.90
39095;DHT22;24840;47.508;19.376;2022-07-06T01:28:36;17.30;99.90
39095;DHT22;24840;47.508;19.376;2022-07-06T01:31:02;17.30;99.90
39095;DHT22;24840;47.508;19.376;2022-07-06T01:33:28;17.20;99.90
39095;DHT22;24840;47.508;19.376;2022-07-06T01:35:54;17.30;99.90
39095;DHT22;24840;47.508;19.376;2022-07-06T01:38:20;17.00;99.90
39095;DHT22;24840;47.508;19.376;2022-07-06T01:40:46;17.00;99.90
39095;DHT22;24840;47.508;19.376;2022-07-06T01:43:12;17.20;99.90
39095;DHT22;24840;47.508;19.376;2022-07-06T01:45:37;17.10;99.90
39095;DHT22;24840;47.508;19.376;2022-07-06T01:48:07;17.00;99.90
39095;DHT22;24840;47.508;19.376;2022-07-06T01:50:33;17.00;99.90
39095;DHT22;24840;47.508;19.376;2022-07-06T01:53:02;16.90;99.90
39095;DHT22;24840;47.508;19.376;2022-07-06T01:55:28;16.90;99.90
39095;DHT22;24840;47.508;19.376;2022-07-06T01:57:53;16.90;99.90
39095;DHT22;24840;47.508;19.376;2022-07-06T02:00:19;16.80;99.90
39095;DHT22;24840;47.508;19.376;2022-07-06T02:02:45;16.80;99.90
39095;DHT22;24840;47.508;19.376;2022-07-06T02:05:11;16.90;99.90
39095;DHT22;24840;47.508;19.376;2022-07-06T02:07:37;16.60;99.90
39095;DHT22;24840;47.508;19.376;2022-07-06T02:10:04;16.70;99.90
39095;DHT22;24840;47.508;19.376;2022-07-06T02:12:30;16.60;99.90
39095;DHT22;24840;47.508;19.376;2022-07-06T02:14:56;16.50;99.90
39095;DHT22;24840;47.508;19.376;2022-07-06T02:17:22;16.50;99.90
39095;DHT22;24840;47.508;19.376;2022-07-06T02:19:48;16.40;99.90
39095;DHT22;24840;47.508;19.376;2022-07-06T02:22:13;16.30;99.90
39095;DHT22;24840;47.508;19.376;2022-07-06T02:24:39;16.30;99.90
39095;DHT22;24840;47.508;19.376;2022-07-06T02:27:05;16.70;99.90
39095;DHT22;24840;47.508;19.376;2022-07-06T02:29:31;16.80;99.90
39095;DHT22;24840;47.508;19.376;2022-07-06T02:31:57;17.00;99.90
39095;DHT22;24840;47.508;19.376;2022-07-06T02:34:23;16.90;99.90
39095;DHT22;24840;47.508;19.376;2022-07-06T02:36:49;16.70;99.90
39095;DHT22;24840;47.508;19.376;2022-07-06T02:39:15;16.60;99.90
39095;DHT22;24840;47.508;19.376;2022-07-06T02:41:41;16.80;99.90
39095;DHT22;24840;47.508;19.376;2022-07-06T02:44:07;16.60;99.90
39095;DHT22;24840;47.508;19.376;2022-07-06T02:46:33;16.60;99.90
39095;DHT22;24840;47.508;19.376;2022-07-06T02:48:59;16.50;99.90
39095;DHT22;24840;47.508;19.376;2022-07-06T02:51:25;16.40;99.90
39095;DHT22;24840;47.508;19.376;2022-07-06T02:53:51;16.30;99.90
39095;DHT22;24840;47.508;19.376;2022-07-06T02:56:17;16.40;99.90
39095;DHT22;24840;47.508;19.376;2022-07-06T02:58:43;16.30;99.90
39095;DHT22;24840;47.508;19.376;2022-07-06T03:01:09;16.40;99.90
39095;DHT22;24840;47.508;19.376;2022-07-06T03:03:34;16.30;99.90
39095;DHT22;24840;47.508;19.376;2022-07-06T03:06:00;16.30;99.90
39095;DHT22;24840;47.508;19.376;2022-07-06T03:08:26;16.30;99.90
39095;DHT22;24840;47.508;19.376;2022-07-06T03:10:52;16.20;99.90
39095;DHT22;24840;47.508;19.376;2022-07-06T03:13:18;16.20;99.90
39095;DHT22;24840;47.508;19.376;2022-07-06T03:15:44;16.10;99.90
39095;DHT22;24840;47.508;19.376;2022-07-06T03:18:10;15.90;99.90
39095;DHT22;24840;47.508;19.376;2022-07-06T03:20:36;16.00;99.90
39095;DHT22;24840;47.508;19.376;2022-07-06T03:23:02;16.10;99.90
39095;DHT22;24840;47.508;19.376;2022-07-06T03:25:28;16.40;99.90
39095;DHT22;24840;47.508;19.376;2022-07-06T03:27:54;16.50;99.90
39095;DHT22;24840;47.508;19.376;2022-07-06T03:30:20;16.30;99.90
39095;DHT22;24840;47.508;19.376;2022-07-06T03:32:46;16.10;99.90
39095;DHT22;24840;47.508;19.376;2022-07-06T03:35:12;15.90;99.90
39095;DHT22;24840;47.508;19.376;2022-07-06T03:37:38;16.00;99.90
39095;DHT22;24840;47.508;19.376;2022-07-06T03:40:04;16.10;99.90
39095;DHT22;24840;47.508;19.376;2022-07-06T03:42:30;16.20;99.90
39095;DHT22;24840;47.508;19.376;2022-07-06T03:44:56;16.20;99.90
39095;DHT22;24840;47.508;19.376;2022-07-06T03:47:22;16.10;99.90
39095;DHT22;24840;47.508;19.376;2022-07-06T03:49:48;16.20;99.90
39095;DHT22;24840;47.508;19.376;2022-07-06T03:52:14;16.40;99.90
39095;DHT22;24840;47.508;19.376;2022-07-06T03:54:40;16.20;99.90
39095;DHT22;24840;47.508;19.376;2022-07-06T03:57:06;16.10;99.90
39095;DHT22;24840;47.508;19.376;2022-07-06T03:59:32;16.20;99.90
39095;DHT22;24840;47.508;19.376;2022-07-06T04:01:58;16.10;99.90
39095;DHT22;24840;47.508;19.376;2022-07-06T04:04:24;16.20;99.90
39095;DHT22;24840;47.508;19.376;2022-07-06T04:06:50;16.20;99.90
39095;DHT22;24840;47.508;19.376;2022-07-06T04:09:16;16.10;99.90
39095;DHT22;24840;47.508;19.376;2022-07-06T04:11:42;16.20;99.90
39095;DHT22;24840;47.508;19.376;2022-07-06T04:14:08;16.40;99.90
39095;DHT22;24840;47.508;19.376;2022-07-06T04:16:33;16.50;99.90
39095;DHT22;24840;47.508;19.376;2022-07-06T04:19:00;16.60;99.90
39095;DHT22;24840;47.508;19.376;2022-07-06T04:21:25;16.70;99.90
39095;DHT22;24840;47.508;19.376;2022-07-06T04:23:51;16.90;99.90
39095;DHT22;24840;47.508;19.376;2022-07-06T04:26:17;17.00;99.90
39095;DHT22;24840;47.508;19.376;2022-07-06T04:28:43;17.10;99.90
39095;DHT22;24840;47.508;19.376;2022-07-06T04:31:09;17.10;99.90
39095;DHT22;24840;47.508;19.376;2022-07-06T04:33:35;17.20;99.90
39095;DHT22;24840;47.508;19.376;2022-07-06T04:36:01;17.40;99.90
39095;DHT22;24840;47.508;19.376;2022-07-06T04:38:27;17.40;99.90
39095;DHT22;24840;47.508;19.376;2022-07-06T04:40:53;17.50;99.90
39095;DHT22;24840;47.508;19.376;2022-07-06T04:43:19;17.50;99.90
39095;DHT22;24840;47.508;19.376;2022-07-06T04:45:45;17.50;99.90
39095;DHT22;24840;47.508;19.376;2022-07-06T04:48:11;17.70;99.90
39095;DHT22;24840;47.508;19.376;2022-07-06T04:50:37;17.70;99.90
39095;DHT22;24840;47.508;19.376;2022-07-06T04:53:03;17.70;99.90
39095;DHT22;24840;47.508;19.376;2022-07-06T04:55:29;17.90;99.90
39095;DHT22;24840;47.508;19.376;2022-07-06T04:57:55;17.90;99.90
39095;DHT22;24840;47.508;19.376;2022-07-06T05:00:21;18.10;99.90
39095;DHT22;24840;47.508;19.376;2022-07-06T05:02:47;18.10;99.90
39095;DHT22;24840;47.508;19.376;2022-07-06T05:05:13;18.20;99.90
39095;DHT22;24840;47.508;19.376;2022-07-06T05:07:39;18.30;99.90
39095;DHT22;24840;47.508;19.376;2022-07-06T05:10:07;18.50;99.90
39095;DHT22;24840;47.508;19.376;2022-07-06T05:12:34;18.70;99.90
39095;DHT22;24840;47.508;19.376;2022-07-06T05:15:00;18.80;99.90
39095;DHT22;24840;47.508;19.376;2022-07-06T05:17:26;18.80;99.90
39095;DHT22;24840;47.508;19.376;2022-07-06T05:19:52;19.00;99.90
39095;DHT22;24840;47.508;19.376;2022-07-06T05:22:18;19.30;99.90
39095;DHT22;24840;47.508;19.376;2022-07-06T05:24:44;19.50;99.90
39095;DHT22;24840;47.508;19.376;2022-07-06T05:27:10;19.60;99.90
39095;DHT22;24840;47.508;19.376;2022-07-06T05:29:36;19.50;99.90
39095;DHT22;24840;47.508;19.376;2022-07-06T05:32:02;19.30;99.90
39095;DHT22;24840;47.508;19.376;2022-07-06T05:34:29;19.20;99.90
39095;DHT22;24840;47.508;19.376;2022-07-06T05:36:55;19.40;99.90
39095;DHT22;24840;47.508;19.376;2022-07-06T05:39:20;19.70;99.90
39095;DHT22;24840;47.508;19.376;2022-07-06T05:41:48;19.80;99.90
39095;DHT22;24840;47.508;19.376;2022-07-06T05:44:15;19.80;99.90
39095;DHT22;24840;47.508;19.376;2022-07-06T05:46:41;19.80;99.90
39095;DHT22;24840;47.508;19.376;2022-07-06T05:49:07;19.80;99.90
39095;DHT22;24840;47.508;19.376;2022-07-06T05:51:51;19.80;99.90
39095;DHT22;24840;47.508;19.376;2022-07-06T05:54:17;20.00;99.90
39095;DHT22;24840;47.508;19.376;2022-07-06T05:56:43;20.20;99.90
39095;DHT22;24840;47.508;19.376;2022-07-06T05:59:09;20.50;99.90
39095;DHT22;24840;47.508;19.376;2022-07-06T06:01:35;20.60;99.90
39095;DHT22;24840;47.508;19.376;2022-07-06T06:04:01;20.70;99.90
39095;DHT22;24840;47.508;19.376;2022-07-06T06:06:28;20.70;99.90
39095;DHT22;24840;47.508;19.376;2022-07-06T06:08:56;20.60;99.90
39095;DHT22;24840;47.508;19.376;2022-07-06T06:11:22;20.90;99.90
39095;DHT22;24840;47.508;19.376;2022-07-06T06:13:48;21.10;99.90
39095;DHT22;24840;47.508;19.376;2022-07-06T06:16:14;21.40;99.90
39095;DHT22;24840;47.508;19.376;2022-07-06T06:18:41;21.70;99.90
39095;DHT22;24840;47.508;19.376;2022-07-06T06:21:07;21.90;99.90
39095;DHT22;24840;47.508;19.376;2022-07-06T06:23:33;22.00;99.90
39095;DHT22;24840;47.508;19.376;2022-07-06T06:25:59;22.20;99.90
39095;DHT22;24840;47.508;19.376;2022-07-06T06:28:25;22.10;99.90
39095;DHT22;24840;47.508;19.376;2022-07-06T06:30:51;22.30;99.90
39095;DHT22;24840;47.508;19.376;2022-07-06T06:33:19;22.20;99.90
39095;DHT22;24840;47.508;19.376;2022-07-06T06:35:51;22.10;99.90
39095;DHT22;24840;47.508;19.376;2022-07-06T06:38:19;22.30;99.90
39095;DHT22;24840;47.508;19.376;2022-07-06T06:40:45;22.10;99.90
39095;DHT22;24840;47.508;19.376;2022-07-06T06:43:12;22.10;99.90
39095;DHT22;24840;47.508;19.376;2022-07-06T06:45:38;22.30;99.90
39095;DHT22;24840;47.508;19.376;2022-07-06T06:48:04;22.90;99.90
39095;DHT22;24840;47.508;19.376;2022-07-06T06:50:30;23.60;99.90
39095;DHT22;24840;47.508;19.376;2022-07-06T06:52:57;24.10;98.00
39095;DHT22;24840;47.508;19.376;2022-07-06T06:55:23;24.10;97.40
39095;DHT22;24840;47.508;19.376;2022-07-06T06:57:49;24.10;96.90
39095;DHT22;24840;47.508;19.376;2022-07-06T07:00:15;24.30;95.60
39095;DHT22;24840;47.508;19.376;2022-07-06T07:02:41;24.30;94.40
39095;DHT22;24840;47.508;19.376;2022-07-06T07:05:07;24.40;95.00
39095;DHT22;24840;47.508;19.376;2022-07-06T07:07:34;24.80;95.30
39095;DHT22;24840;47.508;19.376;2022-07-06T07:10:00;25.30;93.80
39095;DHT22;24840;47.508;19.376;2022-07-06T07:12:26;25.50;92.70
39095;DHT22;24840;47.508;19.376;2022-07-06T07:26:42;25.60;91.20
39095;DHT22;24840;47.508;19.376;2022-07-06T07:29:08;25.20;91.30
39095;DHT22;24840;47.508;19.376;2022-07-06T07:31:34;24.50;92.40
39095;DHT22;24840;47.508;19.376;2022-07-06T07:37:29;24.20;92.60
39095;DHT22;24840;47.508;19.376;2022-07-06T07:39:55;24.40;92.10
39095;DHT22;24840;47.508;19.376;2022-07-06T07:49:06;27.40;89.20
39095;DHT22;24840;47.508;19.376;2022-07-06T07:51:33;27.40;84.40
39095;DHT22;24840;47.508;19.376;2022-07-06T07:57:36;26.10;85.20
39095;DHT22;24840;47.508;19.376;2022-07-06T08:00:03;25.50;90.50
39095;DHT22;24840;47.508;19.376;2022-07-06T08:05:52;26.00;87.80
39095;DHT22;24840;47.508;19.376;2022-07-06T08:08:30;26.10;85.30
39095;DHT22;24840;47.508;19.376;2022-07-06T08:11:11;27.30;85.70
39095;DHT22;24840;47.508;19.376;2022-07-06T08:13:38;27.90;82.80
39095;DHT22;24840;47.508;19.376;2022-07-06T08:16:04;27.70;83.60
39095;DHT22;24840;47.508;19.376;2022-07-06T08:18:30;29.00;82.00
39095;DHT22;24840;47.508;19.376;2022-07-06T08:20:56;29.10;76.10
39095;DHT22;24840;47.508;19.376;2022-07-06T08:23:23;27.90;79.80
39095;DHT22;24840;47.508;19.376;2022-07-06T08:25:49;28.50;78.80
39095;DHT22;24840;47.508;19.376;2022-07-06T08:28:18;29.30;77.80
39095;DHT22;24840;47.508;19.376;2022-07-06T08:30:44;28.80;77.60
39095;DHT22;24840;47.508;19.376;2022-07-06T08:33:10;29.10;75.30
39095;DHT22;24840;47.508;19.376;2022-07-06T08:35:46;28.50;77.30
39095;DHT22;24840;47.508;19.376;2022-07-06T08:38:12;27.40;79.00
39095;DHT22;24840;47.508;19.376;2022-07-06T08:40:40;26.60;82.30
39095;DHT22;24840;47.508;19.376;2022-07-06T08:43:09;27.00;86.20
39095;DHT22;24840;47.508;19.376;2022-07-06T08:45:37;28.50;81.20
39095;DHT22;24840;47.508;19.376;2022-07-06T08:48:05;28.90;73.00
39095;DHT22;24840;47.508;19.376;2022-07-06T08:50:38;29.50;77.60
39095;DHT22;24840;47.508;19.376;2022-07-06T08:53:04;30.10;74.80
39095;DHT22;24840;47.508;19.376;2022-07-06T08:55:31;29.10;73.10
39095;DHT22;24840;47.508;19.376;2022-07-06T08:57:57;28.00;76.10
39095;DHT22;24840;47.508;19.376;2022-07-06T09:00:24;26.70;76.20
39095;DHT22;24840;47.508;19.376;2022-07-06T09:02:52;26.60;80.90
39095;DHT22;24840;47.508;19.376;2022-07-06T09:05:23;26.70;80.70
39095;DHT22;24840;47.508;19.376;2022-07-06T09:07:50;26.80;79.50
39095;DHT22;24840;47.508;19.376;2022-07-06T09:10:21;27.50;82.70
39095;DHT22;24840;47.508;19.376;2022-07-06T09:12:48;28.70;75.10
39095;DHT22;24840;47.508;19.376;2022-07-06T09:15:14;28.30;73.60
39095;DHT22;24840;47.508;19.376;2022-07-06T09:17:42;27.70;74.10
39095;DHT22;24840;47.508;19.376;2022-07-06T09:20:13;27.20;75.00
39095;DHT22;24840;47.508;19.376;2022-07-06T09:22:39;28.70;80.10
39095;DHT22;24840;47.508;19.376;2022-07-06T09:25:11;28.60;77.30
39095;DHT22;24840;47.508;19.376;2022-07-06T09:27:46;29.40;74.40
39095;DHT22;24840;47.508;19.376;2022-07-06T09:30:14;30.80;70.20
39095;DHT22;24840;47.508;19.376;2022-07-06T09:32:41;31.10;66.60
39095;DHT22;24840;47.508;19.376;2022-07-06T09:35:27;29.20;68.90
39095;DHT22;24840;47.508;19.376;2022-07-06T09:38:08;28.30;72.80
39095;DHT22;24840;47.508;19.376;2022-07-06T09:40:38;27.70;74.70
39095;DHT22;24840;47.508;19.376;2022-07-06T09:43:16;29.30;75.10
39095;DHT22;24840;47.508;19.376;2022-07-06T09:45:44;31.10;70.80
39095;DHT22;24840;47.508;19.376;2022-07-06T09:48:13;31.60;66.20
39095;DHT22;24840;47.508;19.376;2022-07-06T09:50:45;30.50;64.10
39095;DHT22;24840;47.508;19.376;2022-07-06T09:53:12;30.00;67.80
39095;DHT22;24840;47.508;19.376;2022-07-06T09:55:43;29.10;69.90
39095;DHT22;24840;47.508;19.376;2022-07-06T09:58:09;29.30;69.50
39095;DHT22;24840;47.508;19.376;2022-07-06T10:00:35;28.60;71.00
39095;DHT22;24840;47.508;19.376;2022-07-06T10:03:01;29.10;71.30
39095;DHT22;24840;47.508;19.376;2022-07-06T10:05:28;30.40;66.00
39095;DHT22;24840;47.508;19.376;2022-07-06T10:08:01;29.60;68.20
39095;DHT22;24840;47.508;19.376;2022-07-06T10:10:32;30.00;70.10
39095;DHT22;24840;47.508;19.376;2022-07-06T10:12:59;29.80;64.50
39095;DHT22;24840;47.508;19.376;2022-07-06T10:15:29;30.60;64.90
39095;DHT22;24840;47.508;19.376;2022-07-06T10:18:04;32.60;64.60
39095;DHT22;24840;47.508;19.376;2022-07-06T10:20:33;32.30;59.50
39095;DHT22;24840;47.508;19.376;2022-07-06T10:23:01;33.50;59.50
39095;DHT22;24840;47.508;19.376;2022-07-06T10:25:27;34.60;54.00
39095;DHT22;24840;47.508;19.376;2022-07-06T10:28:10;35.10;53.40
39095;DHT22;24840;47.508;19.376;2022-07-06T10:30:46;33.50;53.40
39095;DHT22;24840;47.508;19.376;2022-07-06T10:33:16;32.00;57.30
39095;DHT22;24840;47.508;19.376;2022-07-06T10:35:43;31.40;59.50
39095;DHT22;24840;47.508;19.376;2022-07-06T10:38:10;31.90;55.40
39095;DHT22;24840;47.508;19.376;2022-07-06T10:40:43;32.50;58.00
39095;DHT22;24840;47.508;19.376;2022-07-06T10:43:32;32.80;54.30
39095;DHT22;24840;47.508;19.376;2022-07-06T10:46:03;32.70;57.20
39095;DHT22;24840;47.508;19.376;2022-07-06T10:48:38;31.90;56.30
39095;DHT22;24840;47.508;19.376;2022-07-06T10:51:06;30.50;59.30
39095;DHT22;24840;47.508;19.376;2022-07-06T10:53:36;30.80;61.40
39095;DHT22;24840;47.508;19.376;2022-07-06T10:56:07;30.70;59.30
39095;DHT22;24840;47.508;19.376;2022-07-06T10:58:50;33.10;52.90
39095;DHT22;24840;47.508;19.376;2022-07-06T11:01:18;34.00;54.10
39095;DHT22;24840;47.508;19.376;2022-07-06T11:06:25;34.60;51.10
39095;DHT22;24840;47.508;19.376;2022-07-06T11:11:37;34.10;53.70
39095;DHT22;24840;47.508;19.376;2022-07-06T11:14:15;33.80;50.80
39095;DHT22;24840;47.508;19.376;2022-07-06T11:19:24;34.10;48.40
39095;DHT22;24840;47.508;19.376;2022-07-06T11:21:58;32.00;51.60
39095;DHT22;24840;47.508;19.376;2022-07-06T11:24:32;32.30;52.70
39095;DHT22;24840;47.508;19.376;2022-07-06T11:27:00;33.40;48.60
39095;DHT22;24840;47.508;19.376;2022-07-06T11:29:29;33.00;47.30
39095;DHT22;24840;47.508;19.376;2022-07-06T11:32:00;32.50;48.10
39095;DHT22;24840;47.508;19.376;2022-07-06T11:34:34;33.00;49.80
39095;DHT22;24840;47.508;19.376;2022-07-06T11:37:09;31.40;51.50
39095;DHT22;24840;47.508;19.376;2022-07-06T11:39:41;32.10;50.80
39095;DHT22;24840;47.508;19.376;2022-07-06T11:42:11;33.20;48.00
39095;DHT22;24840;47.508;19.376;2022-07-06T11:44:39;31.70;48.40
39095;DHT22;24840;47.508;19.376;2022-07-06T11:47:06;30.80;51.00
39095;DHT22;24840;47.508;19.376;2022-07-06T11:49:36;30.30;53.90
39095;DHT22;24840;47.508;19.376;2022-07-06T11:52:14;30.30;51.50
39095;DHT22;24840;47.508;19.376;2022-07-06T11:54:47;32.00;49.20
39095;DHT22;24840;47.508;19.376;2022-07-06T11:57:14;34.10;47.40
39095;DHT22;24840;47.508;19.376;2022-07-06T11:59:50;33.80;46.10
39095;DHT22;24840;47.508;19.376;2022-07-06T12:02:18;33.00;45.10
39095;DHT22;24840;47.508;19.376;2022-07-06T12:04:45;33.80;47.50
39095;DHT22;24840;47.508;19.376;2022-07-06T12:07:17;34.20;44.90
39095;DHT22;24840;47.508;19.376;2022-07-06T12:09:45;33.70;44.70
39095;DHT22;24840;47.508;19.376;2022-07-06T12:12:12;34.20;43.90
39095;DHT22;24840;47.508;19.376;2022-07-06T12:14:40;34.80;41.90
39095;DHT22;24840;47.508;19.376;2022-07-06T12:17:14;34.60;43.00
39095;DHT22;24840;47.508;19.376;2022-07-06T12:19:41;35.10;41.10
39095;DHT22;24840;47.508;19.376;2022-07-06T12:22:08;33.30;42.50
39095;DHT22;24840;47.508;19.376;2022-07-06T12:24:42;34.80;42.20
39095;DHT22;24840;47.508;19.376;2022-07-06T12:27:11;35.90;43.10
39095;DHT22;24840;47.508;19.376;2022-07-06T12:29:38;35.30;39.80
39095;DHT22;24840;47.508;19.376;2022-07-06T12:32:04;35.50;41.20
39095;DHT22;24840;47.508;19.376;2022-07-06T12:34:31;36.30;40.90
39095;DHT22;24840;47.508;19.376;2022-07-06T12:37:06;35.20;42.30
39095;DHT22;24840;47.508;19.376;2022-07-06T12:39:39;35.30;38.90
39095;DHT22;24840;47.508;19.376;2022-07-06T12:42:06;35.10;41.10
39095;DHT22;24840;47.508;19.376;2022-07-06T12:44:32;35.50;42.00
39095;DHT22;24840;47.508;19.376;2022-07-06T12:47:06;35.50;40.70
39095;DHT22;24840;47.508;19.376;2022-07-06T12:49:34;36.00;41.30
39095;DHT22;24840;47.508;19.376;2022-07-06T12:57:18;34.30;40.00
39095;DHT22;24840;47.508;19.376;2022-07-06T12:59:47;34.80;41.70
39095;DHT22;24840;47.508;19.376;2022-07-06T13:02:23;36.50;40.70
39095;DHT22;24840;47.508;19.376;2022-07-06T13:05:06;35.60;39.50
39095;DHT22;24840;47.508;19.376;2022-07-06T13:07:34;36.00;39.10
39095;DHT22;24840;47.508;19.376;2022-07-06T13:10:10;34.60;38.70
39095;DHT22;24840;47.508;19.376;2022-07-06T13:12:37;34.30;41.20
39095;DHT22;24840;47.508;19.376;2022-07-06T13:15:05;35.40;39.70
39095;DHT22;24840;47.508;19.376;2022-07-06T13:17:33;35.30;41.50
39095;DHT22;24840;47.508;19.376;2022-07-06T13:19:59;35.40;39.70
39095;DHT22;24840;47.508;19.376;2022-07-06T13:22:26;34.20;42.00
39095;DHT22;24840;47.508;19.376;2022-07-06T13:24:52;34.30;40.00
39095;DHT22;24840;47.508;19.376;2022-07-06T13:27:18;35.30;41.30
39095;DHT22;24840;47.508;19.376;2022-07-06T13:29:45;35.90;40.20
39095;DHT22;24840;47.508;19.376;2022-07-06T13:32:11;34.70;39.80
39095;DHT22;24840;47.508;19.376;2022-07-06T13:34:37;34.70;40.80
39095;DHT22;24840;47.508;19.376;2022-07-06T13:37:05;35.40;40.20
39095;DHT22;24840;47.508;19.376;2022-07-06T13:39:32;35.00;40.40
39095;DHT22;24840;47.508;19.376;2022-07-06T13:41:58;34.60;41.20
39095;DHT22;24840;47.508;19.376;2022-07-06T13:44:26;35.90;41.30
39095;DHT22;24840;47.508;19.376;2022-07-06T13:46:52;35.10;39.90
39095;DHT22;24840;47.508;19.376;2022-07-06T13:49:19;33.50;42.10
39095;DHT22;24840;47.508;19.376;2022-07-06T13:51:45;34.20;40.50
39095;DHT22;24840;47.508;19.376;2022-07-06T13:54:11;33.90;41.00
39095;DHT22;24840;47.508;19.376;2022-07-06T13:56:38;32.50;43.10
39095;DHT22;24840;47.508;19.376;2022-07-06T13:59:05;32.90;43.90
39095;DHT22;24840;47.508;19.376;2022-07-06T14:01:31;33.30;43.20
39095;DHT22;24840;47.508;19.376;2022-07-06T14:03:58;33.60;41.20
39095;DHT22;24840;47.508;19.376;2022-07-06T14:06:24;33.90;41.70
39095;DHT22;24840;47.508;19.376;2022-07-06T14:08:50;33.70;42.80
39095;DHT22;24840;47.508;19.376;2022-07-06T14:11:17;32.30;42.20
39095;DHT22;24840;47.508;19.376;2022-07-06T14:13:43;32.50;44.50
39095;DHT22;24840;47.508;19.376;2022-07-06T14:16:09;33.10;44.40
39095;DHT22;24840;47.508;19.376;2022-07-06T14:18:35;32.90;44.80
39095;DHT22;24840;47.508;19.376;2022-07-06T14:21:01;33.50;44.50
39095;DHT22;24840;47.508;19.376;2022-07-06T14:23:29;33.70;43.00
39095;DHT22;24840;47.508;19.376;2022-07-06T14:25:56;33.40;44.30
39095;DHT22;24840;47.508;19.376;2022-07-06T14:28:22;32.50;43.70
39095;DHT22;24840;47.508;19.376;2022-07-06T14:30:48;32.10;45.90
39095;DHT22;24840;47.508;19.376;2022-07-06T14:33:15;32.50;45.30
39095;DHT22;24840;47.508;19.376;2022-07-06T14:35:44;32.80;44.10
39095;DHT22;24840;47.508;19.376;2022-07-06T14:38:13;32.90;45.70
39095;DHT22;24840;47.508;19.376;2022-07-06T14:40:40;33.10;45.10
39095;DHT22;24840;47.508;19.376;2022-07-06T14:43:07;33.40;44.20
39095;DHT22;24840;47.508;19.376;2022-07-06T14:45:33;33.70;44.80
39095;DHT22;24840;47.508;19.376;2022-07-06T14:48:00;33.10;44.00
39095;DHT22;24840;47.508;19.376;2022-07-06T14:50:26;33.00;45.20
39095;DHT22;24840;47.508;19.376;2022-07-06T14:52:54;33.40;43.70
39095;DHT22;24840;47.508;19.376;2022-07-06T14:55:21;32.80;44.00
39095;DHT22;24840;47.508;19.376;2022-07-06T14:57:47;32.80;44.30
39095;DHT22;24840;47.508;19.376;2022-07-06T15:00:14;32.90;44.10
39095;DHT22;24840;47.508;19.376;2022-07-06T15:02:41;32.70;44.00
39095;DHT22;24840;47.508;19.376;2022-07-06T15:05:09;32.70;44.80
39095;DHT22;24840;47.508;19.376;2022-07-06T15:07:36;32.50;42.20
39095;DHT22;24840;47.508;19.376;2022-07-06T15:10:03;32.40;43.90
39095;DHT22;24840;47.508;19.376;2022-07-06T15:12:30;32.20;43.60
39095;DHT22;24840;47.508;19.376;2022-07-06T15:14:56;32.40;44.10
39095;DHT22;24840;47.508;19.376;2022-07-06T15:17:22;32.60;42.60
39095;DHT22;24840;47.508;19.376;2022-07-06T15:19:48;32.20;42.10
39095;DHT22;24840;47.508;19.376;2022-07-06T15:22:14;32.30;42.90
39095;DHT22;24840;47.508;19.376;2022-07-06T15:24:41;32.40;41.20
39095;DHT22;24840;47.508;19.376;2022-07-06T15:27:08;32.00;43.00
39095;DHT22;24840;47.508;19.376;2022-07-06T15:29:34;31.90;43.40
39095;DHT22;24840;47.508;19.376;2022-07-06T15:32:00;32.30;43.50
39095;DHT22;24840;47.508;19.376;2022-07-06T15:34:29;31.60;43.30
39095;DHT22;24840;47.508;19.376;2022-07-06T15:36:55;31.40;44.00
39095;DHT22;24840;47.508;19.376;2022-07-06T15:39:21;31.70;43.60
39095;DHT22;24840;47.508;19.376;2022-07-06T15:41:47;31.90;43.50
39095;DHT22;24840;47.508;19.376;2022-07-06T15:44:13;31.30;44.60
39095;DHT22;24840;47.508;19.376;2022-07-06T15:46:39;31.40;43.60
39095;DHT22;24840;47.508;19.376;2022-07-06T15:49:05;31.30;44.30
39095;DHT22;24840;47.508;19.376;2022-07-06T15:51:32;30.70;44.20
39095;DHT22;24840;47.508;19.376;2022-07-06T15:54:01;30.30;43.70
39095;DHT22;24840;47.508;19.376;2022-07-06T15:56:27;30.30;44.40
39095;DHT22;24840;47.508;19.376;2022-07-06T15:58:53;30.30;43.90
39095;DHT22;24840;47.508;19.376;2022-07-06T16:01:19;29.80;43.50